createdAt,value
2016-12-08T00:00:16.820Z,82.08
2016-12-08T00:01:16.810Z,81.88
2016-12-08T00:02:16.800Z,82.17
2016-12-08T00:03:16.784Z,82.27
2016-12-08T00:04:16.778Z,82.17
2016-12-08T00:05:16.763Z,82.36
2016-12-08T00:06:16.754Z,82.65
2016-12-08T00:07:16.736Z,82.27
2016-12-08T00:08:16.731Z,82.17
2016-12-08T00:09:16.720Z,82.74
2016-12-08T00:10:16.707Z,82.36
2016-12-08T00:11:16.694Z,82.65
2016-12-08T00:12:16.682Z,82.32
2016-12-08T00:13:16.671Z,82.98
2016-12-08T00:14:16.661Z,83.36
2016-12-08T00:15:16.648Z,83.46
2016-12-08T00:16:16.636Z,83.08
2016-12-08T00:17:16.628Z,83.36
2016-12-08T00:18:16.611Z,83.08
2016-12-08T00:19:16.599Z,83.08
2016-12-08T00:20:16.587Z,83.36
2016-12-08T00:21:16.881Z,83.46
2016-12-08T00:22:16.568Z,83.65
2016-12-08T00:23:16.552Z,83.08
2016-12-08T00:24:16.542Z,83.94
2016-12-08T00:25:16.528Z,83.94
2016-12-08T00:26:16.519Z,83.94
2016-12-08T00:27:16.509Z,83.74
2016-12-08T00:28:16.492Z,84.12
2016-12-08T00:29:16.484Z,83.74
2016-12-08T00:30:16.471Z,83.46
2016-12-08T00:31:16.461Z,83.94
2016-12-08T00:32:16.445Z,83.65
2016-12-08T00:33:16.441Z,84.31
2016-12-08T00:34:16.428Z,83.74
2016-12-08T00:35:16.413Z,84.41
2016-12-08T00:36:16.400Z,84.03
2016-12-08T00:37:16.394Z,84.59
2016-12-08T00:38:16.380Z,84.12
2016-12-08T00:39:16.366Z,84.12
2016-12-08T00:40:16.352Z,84.03
2016-12-08T00:41:16.344Z,84.59
2016-12-08T00:42:16.631Z,84.5
2016-12-08T00:43:16.317Z,84.69
2016-12-08T00:44:16.306Z,84.5
2016-12-08T00:45:16.294Z,84.78
2016-12-08T00:46:16.284Z,84.69
2016-12-08T00:47:16.266Z,84.69
2016-12-08T00:48:16.263Z,84.69
2016-12-08T00:49:16.249Z,84.69
2016-12-08T00:50:16.232Z,84.78
2016-12-08T00:51:16.223Z,84.5
2016-12-08T00:52:16.215Z,84.69
2016-12-08T00:53:16.199Z,84.88
2016-12-08T00:54:16.184Z,85.07
2016-12-08T00:55:16.173Z,84.78
2016-12-08T00:56:16.160Z,84.88
2016-12-08T00:57:16.157Z,84.98
2016-12-08T00:58:16.138Z,84.69
2016-12-08T00:59:16.129Z,85.07
2016-12-08T01:00:16.117Z,84.59
2016-12-08T01:01:16.103Z,85.36
2016-12-08T01:02:16.090Z,85.17
2016-12-08T01:03:16.085Z,84.88
2016-12-08T01:04:16.071Z,84.98
2016-12-08T01:05:16.056Z,85.17
2016-12-08T01:06:16.041Z,85.26
2016-12-08T01:07:16.031Z,84.59
2016-12-08T01:08:16.016Z,84.98
2016-12-08T01:09:16.006Z,85.17
2016-12-08T01:10:15.993Z,84.5
2016-12-08T01:11:15.990Z,85.26
2016-12-08T01:12:15.968Z,84.88
2016-12-08T01:13:15.961Z,84.88
2016-12-08T01:14:15.947Z,84.59
2016-12-08T01:15:15.937Z,84.98
2016-12-08T01:16:15.925Z,84.22
2016-12-08T01:17:15.915Z,84.03
2016-12-08T01:18:15.903Z,84.07
2016-12-08T01:19:15.893Z,84.36
2016-12-08T01:20:15.878Z,83.97
2016-12-08T01:21:15.869Z,83.88
2016-12-08T01:22:15.853Z,83.69
2016-12-08T01:23:15.839Z,83.59
2016-12-08T01:24:15.832Z,83.4
2016-12-08T01:25:15.819Z,83.78
2016-12-08T01:26:15.806Z,83.59
2016-12-08T01:27:15.794Z,83.4
2016-12-08T01:28:15.783Z,83.5
2016-12-08T01:29:15.781Z,83.03
2016-12-08T01:30:15.760Z,83.31
2016-12-08T01:31:15.746Z,82.93
2016-12-08T01:32:15.735Z,82.93
2016-12-08T01:33:15.724Z,82.36
2016-12-08T01:34:15.711Z,82.46
2016-12-08T01:35:15.704Z,82.55
2016-12-08T01:36:15.691Z,82.55
2016-12-08T01:37:15.684Z,82.36
2016-12-08T01:38:15.673Z,82.27
2016-12-08T01:39:15.656Z,82.65
2016-12-08T01:40:15.642Z,82.55
2016-12-08T01:41:15.645Z,82.08
2016-12-08T01:42:15.619Z,82.65
2016-12-08T01:43:15.908Z,81.98
2016-12-08T01:44:15.595Z,82.74
2016-12-08T01:45:15.584Z,82.08
2016-12-08T01:46:15.581Z,82.84
2016-12-08T01:47:15.563Z,82.55
2016-12-08T01:48:15.550Z,82.65
2016-12-08T01:49:15.538Z,81.98
2016-12-08T01:50:15.527Z,82.84
2016-12-08T01:51:15.513Z,82.55
2016-12-08T01:52:15.504Z,82.46
2016-12-08T01:53:15.493Z,82.27
2016-12-08T01:54:15.479Z,82.36
2016-12-08T01:55:15.468Z,82.84
2016-12-08T01:56:15.456Z,82.65
2016-12-08T01:57:15.449Z,82.74
2016-12-08T01:58:15.432Z,82.98
2016-12-08T01:59:15.424Z,83.59
2016-12-08T02:00:15.408Z,83.36
2016-12-08T02:01:15.398Z,83.55
2016-12-08T02:02:15.388Z,83.65
2016-12-08T02:03:15.374Z,83.55
2016-12-08T02:04:15.367Z,83.36
2016-12-08T02:05:15.351Z,83.36
2016-12-08T02:06:15.342Z,83.46
2016-12-08T02:07:15.328Z,83.94
2016-12-08T02:08:15.316Z,83.84
2016-12-08T02:09:15.303Z,83.55
2016-12-08T02:10:15.290Z,83.55
2016-12-08T02:11:15.279Z,83.94
2016-12-08T02:12:15.268Z,83.84
2016-12-08T02:13:15.555Z,83.65
2016-12-08T02:14:15.241Z,84.41
2016-12-08T02:15:15.229Z,84.31
2016-12-08T02:16:15.226Z,84.31
2016-12-08T02:17:15.206Z,84.03
2016-12-08T02:18:15.196Z,84.41
2016-12-08T02:19:15.190Z,84.12
2016-12-08T02:20:15.173Z,84.22
2016-12-08T02:21:15.162Z,84.41
2016-12-08T02:22:15.149Z,84.41
2016-12-08T02:23:15.139Z,84.03
2016-12-08T02:24:15.125Z,84.03
2016-12-08T02:25:15.113Z,84.12
2016-12-08T02:26:15.103Z,84.22
2016-12-08T02:27:15.088Z,84.22
2016-12-08T02:28:15.074Z,84.78
2016-12-08T02:29:15.063Z,84.31
2016-12-08T02:30:15.050Z,84.88
2016-12-08T02:31:15.043Z,84.59
2016-12-08T02:32:15.029Z,84.41
2016-12-08T02:33:15.014Z,84.78
2016-12-08T02:34:15.003Z,84.59
2016-12-08T02:35:14.995Z,85.07
2016-12-08T02:36:14.983Z,84.98
2016-12-08T02:37:14.973Z,84.98
2016-12-08T02:38:14.957Z,84.98
2016-12-08T02:39:14.942Z,84.98
2016-12-08T02:40:14.936Z,85.17
2016-12-08T02:41:14.921Z,84.98
2016-12-08T02:42:14.908Z,84.98
2016-12-08T02:43:14.899Z,84.69
2016-12-08T02:44:14.885Z,85.07
2016-12-08T02:45:14.901Z,84.98
2016-12-08T02:46:14.864Z,84.78
2016-12-08T02:47:14.882Z,84.78
2016-12-08T02:48:14.836Z,85.83
2016-12-08T02:49:14.826Z,85.07
2016-12-08T02:50:14.810Z,84.98
2016-12-08T02:51:14.803Z,85.83
2016-12-08T02:52:14.792Z,85.45
2016-12-08T02:53:14.776Z,85.45
2016-12-08T02:54:14.763Z,85.17
2016-12-08T02:55:14.791Z,85.07
2016-12-08T02:56:14.745Z,85.36
2016-12-08T02:57:14.727Z,85.74
2016-12-08T02:58:14.716Z,85.45
2016-12-08T02:59:14.705Z,85.45
2016-12-08T03:00:14.698Z,85.64
2016-12-08T03:01:14.684Z,85.64
2016-12-08T03:02:14.669Z,85.64
2016-12-08T03:03:14.659Z,85.55
2016-12-08T03:04:14.672Z,85.74
2016-12-08T03:05:14.632Z,85.26
2016-12-08T03:06:14.616Z,85.26
2016-12-08T03:07:14.605Z,85.07
2016-12-08T03:08:14.600Z,85.55
2016-12-08T03:09:14.586Z,85.55
2016-12-08T03:10:14.575Z,85.55
2016-12-08T03:11:14.562Z,85.55
2016-12-08T03:12:14.548Z,85.07
2016-12-08T03:13:14.537Z,85.07
2016-12-08T03:14:14.523Z,85.55
2016-12-08T03:15:14.509Z,85.36
2016-12-08T03:16:14.500Z,85.36
2016-12-08T03:17:14.486Z,85.64
2016-12-08T03:18:14.477Z,85.64
2016-12-08T03:19:14.466Z,85.64
2016-12-08T03:20:14.447Z,85.74
2016-12-08T03:21:14.440Z,85.45
2016-12-08T03:22:14.423Z,85.55
2016-12-08T03:23:14.413Z,85.26
2016-12-08T03:24:14.400Z,85.45
2016-12-08T03:25:14.386Z,85.36
2016-12-08T03:26:14.374Z,85.26
2016-12-08T03:27:14.367Z,85.45
2016-12-08T03:28:14.354Z,85.64
2016-12-08T03:29:14.339Z,85.74
2016-12-08T03:30:14.329Z,85.64
2016-12-08T03:31:14.316Z,85.45
2016-12-08T03:32:14.301Z,85.26
2016-12-08T03:33:14.287Z,85.45
2016-12-08T03:34:14.280Z,86.02
2016-12-08T03:35:14.266Z,85.74
2016-12-08T03:36:14.254Z,85.26
2016-12-08T03:37:14.240Z,85.36
2016-12-08T03:38:14.251Z,85.55
2016-12-08T03:39:14.214Z,85.83
2016-12-08T03:40:14.205Z,85.17
2016-12-08T03:41:14.193Z,86.02
2016-12-08T03:42:14.179Z,85.64
2016-12-08T03:43:14.167Z,85.83
2016-12-08T03:44:14.154Z,85.83
2016-12-08T03:45:14.140Z,85.55
2016-12-08T03:46:14.128Z,85.64
2016-12-08T03:47:14.115Z,85.55
2016-12-08T03:48:14.105Z,85.64
2016-12-08T03:49:14.091Z,86.11
2016-12-08T03:50:14.078Z,85.74
2016-12-08T03:51:14.067Z,85.93
2016-12-08T03:52:14.053Z,85.64
2016-12-08T03:53:14.043Z,85.83
2016-12-08T03:54:14.028Z,85.64
2016-12-08T03:55:14.020Z,85.74
2016-12-08T03:56:14.008Z,86.11
2016-12-08T03:57:13.992Z,85.93
2016-12-08T03:58:13.980Z,86.02
2016-12-08T03:59:13.968Z,86.02
2016-12-08T04:00:13.954Z,85.55
2016-12-08T04:01:13.944Z,85.93
2016-12-08T04:02:13.934Z,85.83
2016-12-08T04:03:13.920Z,85.74
2016-12-08T04:04:13.908Z,86.11
2016-12-08T04:05:13.894Z,85.69
2016-12-08T04:06:13.884Z,85.93
2016-12-08T04:07:13.871Z,85.74
2016-12-08T04:08:13.858Z,85.74
2016-12-08T04:09:13.846Z,85.36
2016-12-08T04:10:13.834Z,85.5
2016-12-08T04:11:13.822Z,85.83
2016-12-08T04:12:13.811Z,85.93
2016-12-08T04:13:13.797Z,85.55
2016-12-08T04:14:13.815Z,85.45
2016-12-08T04:15:13.772Z,85.74
2016-12-08T04:16:13.760Z,85.83
2016-12-08T04:17:13.753Z,86.68
2016-12-08T04:18:13.737Z,85.74
2016-12-08T04:19:13.722Z,86.59
2016-12-08T04:20:13.716Z,85.83
2016-12-08T04:21:13.698Z,86.45
2016-12-08T04:22:13.684Z,85.41
2016-12-08T04:23:13.674Z,85.6
2016-12-08T04:24:13.664Z,85.97
2016-12-08T04:25:13.653Z,86.26
2016-12-08T04:26:13.640Z,86.16
2016-12-08T04:27:13.632Z,86.11
2016-12-08T04:28:13.613Z,85.74
2016-12-08T04:29:13.602Z,85.78
2016-12-08T04:30:13.589Z,86.16
2016-12-08T04:31:13.576Z,86.45
2016-12-08T04:32:13.566Z,86.16
2016-12-08T04:33:13.553Z,86.16
2016-12-08T04:34:13.541Z,86.26
2016-12-08T04:35:13.527Z,86.16
2016-12-08T04:36:13.516Z,86.16
2016-12-08T04:37:13.504Z,85.97
2016-12-08T04:38:13.491Z,86.07
2016-12-08T04:39:13.478Z,86.35
2016-12-08T04:40:13.466Z,86.35
2016-12-08T04:41:13.455Z,85.88
2016-12-08T04:42:13.440Z,86.07
2016-12-08T04:43:13.431Z,86.35
2016-12-08T04:44:13.416Z,86.07
2016-12-08T04:45:13.406Z,86.45
2016-12-08T04:46:13.392Z,86.16
2016-12-08T04:47:13.383Z,86.16
2016-12-08T04:48:13.372Z,86.35
2016-12-08T04:49:13.357Z,85.97
2016-12-08T04:50:13.345Z,86.07
2016-12-08T04:51:13.330Z,86.07
2016-12-08T04:52:13.319Z,86.16
2016-12-08T04:53:13.306Z,85.88
2016-12-08T04:54:13.298Z,86.07
2016-12-08T04:55:13.281Z,85.78
2016-12-08T04:56:13.271Z,86.26
2016-12-08T04:57:13.258Z,86.35
2016-12-08T04:58:13.247Z,86.64
2016-12-08T04:59:13.232Z,86.26
2016-12-08T05:00:13.220Z,86.07
2016-12-08T05:01:13.209Z,86.07
2016-12-08T05:02:13.195Z,86.16
2016-12-08T05:03:13.186Z,86.07
2016-12-08T05:04:13.175Z,86.07
2016-12-08T05:05:13.161Z,86.35
2016-12-08T05:06:13.146Z,86.35
2016-12-08T05:07:13.134Z,86.55
2016-12-08T05:08:13.123Z,86.45
2016-12-08T05:09:13.110Z,85.88
2016-12-08T05:10:13.097Z,86.35
2016-12-08T05:11:13.087Z,86.35
2016-12-08T05:12:13.076Z,86.21
2016-12-08T05:13:13.090Z,86.07
2016-12-08T05:14:13.050Z,85.88
2016-12-08T05:15:13.037Z,86.4
2016-12-08T05:16:13.026Z,86.26
2016-12-08T05:17:13.010Z,86.02
2016-12-08T05:18:13.000Z,86.3
2016-12-08T05:19:12.988Z,86.11
2016-12-08T05:20:12.975Z,86.16
2016-12-08T05:21:12.966Z,86.3
2016-12-08T05:22:12.954Z,86.4
2016-12-08T05:23:12.944Z,86.3
2016-12-08T05:24:12.931Z,86.02
2016-12-08T05:25:12.912Z,86.11
2016-12-08T05:26:12.904Z,85.93
2016-12-08T05:27:12.889Z,86.3
2016-12-08T05:28:12.881Z,86.4
2016-12-08T05:29:12.865Z,85.97
2016-12-08T05:30:12.857Z,86.49
2016-12-08T05:31:12.843Z,86.07
2016-12-08T05:32:12.829Z,86.02
2016-12-08T05:33:12.821Z,85.93
2016-12-08T05:34:12.804Z,86.11
2016-12-08T05:35:12.794Z,86.02
2016-12-08T05:36:12.781Z,86.26
2016-12-08T05:37:12.767Z,86.45
2016-12-08T05:38:12.755Z,85.6
2016-12-08T05:39:12.750Z,86.11
2016-12-08T05:40:12.732Z,85.88
2016-12-08T05:41:12.728Z,86.49
2016-12-08T05:42:12.711Z,86.02
2016-12-08T05:43:12.700Z,86.4
2016-12-08T05:44:12.683Z,86.02
2016-12-08T05:45:12.676Z,86.21
2016-12-08T05:46:12.657Z,86.16
2016-12-08T05:47:12.646Z,86.21
2016-12-08T05:48:12.638Z,85.88
2016-12-08T05:49:12.627Z,86.07
2016-12-08T05:50:12.612Z,86.07
2016-12-08T05:51:12.598Z,86.21
2016-12-08T05:52:12.584Z,86.16
2016-12-08T05:53:12.575Z,86.11
2016-12-08T05:54:12.565Z,85.97
2016-12-08T05:55:12.551Z,86.4
2016-12-08T05:56:12.541Z,86.45
2016-12-08T05:57:12.526Z,86.11
2016-12-08T05:58:12.516Z,86.11
2016-12-08T05:59:12.501Z,86.4
2016-12-08T06:00:12.486Z,86.4
2016-12-08T06:01:12.480Z,86.07
2016-12-08T06:02:12.761Z,86.35
2016-12-08T06:03:12.454Z,85.97
2016-12-08T06:04:12.439Z,86.4
2016-12-08T06:05:12.428Z,86.02
2016-12-08T06:06:12.415Z,86.21
2016-12-08T06:07:12.401Z,85.97
2016-12-08T06:08:12.391Z,86.02
2016-12-08T06:09:12.386Z,86.02
2016-12-08T06:10:12.368Z,86.11
2016-12-08T06:11:12.352Z,86.3
2016-12-08T06:12:12.345Z,86.3
2016-12-08T06:13:12.331Z,86.4
2016-12-08T06:14:12.317Z,86.21
2016-12-08T06:15:12.303Z,86.21
2016-12-08T06:16:12.300Z,86.16
2016-12-08T06:17:12.280Z,86.21
2016-12-08T06:18:12.272Z,86.3
2016-12-08T06:19:12.258Z,86.3
2016-12-08T06:20:12.244Z,86.16
2016-12-08T06:21:12.234Z,86.4
2016-12-08T06:22:12.217Z,85.5
2016-12-08T06:23:12.205Z,86.21
2016-12-08T06:24:12.198Z,85.97
2016-12-08T06:25:12.182Z,86.4
2016-12-08T06:26:12.172Z,86.11
2016-12-08T06:27:12.159Z,86.49
2016-12-08T06:28:12.455Z,86.49
2016-12-08T06:29:12.134Z,85.64
2016-12-08T06:30:12.149Z,85.45
2016-12-08T06:31:12.109Z,85.83
2016-12-08T06:32:12.100Z,85.55
2016-12-08T06:33:12.084Z,85.64
2016-12-08T06:34:12.074Z,85.83
2016-12-08T06:35:12.067Z,85.55
2016-12-08T06:36:12.046Z,86.11
2016-12-08T06:37:12.036Z,85.45
2016-12-08T06:38:12.023Z,85.83
2016-12-08T06:39:12.011Z,85.74
2016-12-08T06:40:12.005Z,85.83
2016-12-08T06:41:12.285Z,85.74
2016-12-08T06:42:11.977Z,85.83
2016-12-08T06:43:11.964Z,85.93
2016-12-08T06:44:11.949Z,85.64
2016-12-08T06:45:11.943Z,85.45
2016-12-08T06:46:11.928Z,86.11
2016-12-08T06:47:11.917Z,85.74
2016-12-08T06:48:11.901Z,86.11
2016-12-08T06:49:11.892Z,86.11
2016-12-08T06:50:11.878Z,86.02
2016-12-08T06:51:11.864Z,85.74
2016-12-08T06:52:11.856Z,85.64
2016-12-08T06:53:11.841Z,86.16
2016-12-08T06:54:11.828Z,85.64
2016-12-08T06:55:11.816Z,85.83
2016-12-08T06:56:11.801Z,86.02
2016-12-08T06:57:11.791Z,85.97
2016-12-08T06:58:11.782Z,86.07
2016-12-08T06:59:11.770Z,85.74
2016-12-08T07:00:11.754Z,86.07
2016-12-08T07:01:11.744Z,86.11
2016-12-08T07:02:11.734Z,85.78
2016-12-08T07:03:11.716Z,85.69
2016-12-08T07:04:11.708Z,85.74
2016-12-08T07:05:11.695Z,85.69
2016-12-08T07:06:11.685Z,85.74
2016-12-08T07:07:11.667Z,86.02
2016-12-08T07:08:11.661Z,86.11
2016-12-08T07:09:11.649Z,85.93
2016-12-08T07:10:11.639Z,86.02
2016-12-08T07:11:11.623Z,85.64
2016-12-08T07:12:11.611Z,86.11
2016-12-08T07:13:11.594Z,85.88
2016-12-08T07:14:11.613Z,85.93
2016-12-08T07:15:11.575Z,85.83
2016-12-08T07:16:11.562Z,85.83
2016-12-08T07:17:11.547Z,85.93
2016-12-08T07:18:11.534Z,85.64
2016-12-08T07:19:11.523Z,85.74
2016-12-08T07:20:11.512Z,85.55
2016-12-08T07:21:11.500Z,86.02
2016-12-08T07:22:11.485Z,85.36
2016-12-08T07:23:11.472Z,85.64
2016-12-08T07:24:11.459Z,85.45
2016-12-08T07:25:11.453Z,85.55
2016-12-08T07:26:11.438Z,85.45
2016-12-08T07:27:11.424Z,85.17
2016-12-08T07:28:11.411Z,85.07
2016-12-08T07:29:11.411Z,85.55
2016-12-08T07:30:11.387Z,85.36
2016-12-08T07:31:11.378Z,85.26
2016-12-08T07:32:11.364Z,84.98
2016-12-08T07:33:11.357Z,85.55
2016-12-08T07:34:11.340Z,85.07
2016-12-08T07:35:11.332Z,85.07
2016-12-08T07:36:11.316Z,84.69
2016-12-08T07:37:11.305Z,84.78
2016-12-08T07:38:11.295Z,84.78
2016-12-08T07:39:11.279Z,85.26
2016-12-08T07:40:11.271Z,85.07
2016-12-08T07:41:11.260Z,84.98
2016-12-08T07:42:11.245Z,84.78
2016-12-08T07:43:11.233Z,84.59
2016-12-08T07:44:11.219Z,84.78
2016-12-08T07:45:11.210Z,84.59
2016-12-08T07:46:11.198Z,84.69
2016-12-08T07:47:11.186Z,84.41
2016-12-08T07:48:11.176Z,84.41
2016-12-08T07:49:11.167Z,84.31
2016-12-08T07:50:11.148Z,84.31
2016-12-08T07:51:11.142Z,84.03
2016-12-08T07:52:11.130Z,84.22
2016-12-08T07:53:11.117Z,84.03
2016-12-08T07:54:11.104Z,84.41
2016-12-08T07:55:11.094Z,84.26
2016-12-08T07:56:11.078Z,83.59
2016-12-08T07:57:11.071Z,83.5
2016-12-08T07:58:11.057Z,83.78
2016-12-08T07:59:11.042Z,83.78
2016-12-08T08:00:11.035Z,83.88
2016-12-08T08:01:11.027Z,83.59
2016-12-08T08:02:11.010Z,83.4
2016-12-08T08:03:11.001Z,83.22
2016-12-08T08:04:10.986Z,83.03
2016-12-08T08:05:10.979Z,83.03
2016-12-08T08:06:10.964Z,82.84
2016-12-08T08:07:10.953Z,82.74
2016-12-08T08:08:10.944Z,82.36
2016-12-08T08:09:10.938Z,82.74
2016-12-08T08:10:10.916Z,82.36
2016-12-08T08:11:10.910Z,82.17
2016-12-08T08:12:10.899Z,81.88
2016-12-08T08:13:10.884Z,81.88
2016-12-08T08:14:10.874Z,81.88
2016-12-08T08:15:10.863Z,81.74
2016-12-08T08:16:10.853Z,81.13
2016-12-08T08:17:10.844Z,81.55
2016-12-08T08:18:10.832Z,81.26
2016-12-08T08:19:10.824Z,80.79
2016-12-08T08:20:10.809Z,81.36
2016-12-08T08:21:10.797Z,80.79
2016-12-08T08:22:10.785Z,80.22
2016-12-08T08:23:10.777Z,80.22
2016-12-08T08:24:10.763Z,80.22
2016-12-08T08:25:10.755Z,79.65
2016-12-08T08:26:10.743Z,80.03
2016-12-08T08:27:10.758Z,79.5
2016-12-08T08:28:10.722Z,79.17
2016-12-08T08:29:10.709Z,79.69
2016-12-08T08:30:10.695Z,79.22
2016-12-08T08:31:10.996Z,78.64
2016-12-08T08:32:10.679Z,78.83
2016-12-08T08:33:10.665Z,78.08
2016-12-08T08:34:10.657Z,78.64
2016-12-08T08:35:10.648Z,77.98
2016-12-08T08:36:10.640Z,77.98
2016-12-08T08:37:10.624Z,77.79
2016-12-08T08:38:10.611Z,76.46
2016-12-08T08:39:10.605Z,77.31
2016-12-08T08:40:10.593Z,76.37
2016-12-08T08:41:10.587Z,76.93
2016-12-08T08:42:10.572Z,76.97
2016-12-08T08:43:10.564Z,76.5
2016-12-08T08:44:10.552Z,76.21
2016-12-08T08:45:10.545Z,76.21
2016-12-08T08:46:10.534Z,76.21
2016-12-08T08:47:10.527Z,76.31
2016-12-08T08:48:10.719Z,75.26
2016-12-08T08:49:10.504Z,76.12
2016-12-08T08:50:10.496Z,74.79
2016-12-08T08:51:10.489Z,74.69
2016-12-08T08:52:10.476Z,74.41
2016-12-08T08:53:10.465Z,74.6
2016-12-08T08:54:10.457Z,74.73
2016-12-08T08:55:10.445Z,74.44
2016-12-08T08:56:10.435Z,74.44
2016-12-08T08:57:10.428Z,74.35
2016-12-08T08:58:10.423Z,74.44
2016-12-08T08:59:10.405Z,73.69
2016-12-08T09:00:10.400Z,73.97
2016-12-08T09:01:10.589Z,73.49
2016-12-08T09:02:10.381Z,73.11
2016-12-08T09:03:10.369Z,73.3
2016-12-08T09:04:10.357Z,73.4
2016-12-08T09:05:10.355Z,72.83
2016-12-08T09:06:10.346Z,72.45
2016-12-08T09:07:10.331Z,72.55
2016-12-08T09:08:10.324Z,72.45
2016-12-08T09:09:10.321Z,72.64
2016-12-08T09:10:10.310Z,71.88
2016-12-08T09:11:10.325Z,71.72
2016-12-08T09:12:10.489Z,71.59
2016-12-08T09:13:10.277Z,71.82
2016-12-08T09:14:10.270Z,71.82
2016-12-08T09:15:10.262Z,71.82
2016-12-08T09:16:10.257Z,71.63
2016-12-08T09:17:10.241Z,71.34
2016-12-08T09:18:10.239Z,71.34
2016-12-08T09:19:10.222Z,70.97
2016-12-08T09:20:10.415Z,71.34
2016-12-08T09:21:10.205Z,71.34
2016-12-08T09:22:10.201Z,71.44
2016-12-08T09:23:10.188Z,70.97
2016-12-08T09:24:10.181Z,71.06
2016-12-08T09:25:10.173Z,71.44
2016-12-08T09:26:10.165Z,71.06
2016-12-08T09:27:10.154Z,70.97
2016-12-08T09:28:10.150Z,70.58
2016-12-08T09:29:10.137Z,70.01
2016-12-08T09:30:10.126Z,70.3
2016-12-08T09:31:10.122Z,70.49
2016-12-08T09:32:10.114Z,71.06
2016-12-08T09:33:10.104Z,70.58
2016-12-08T09:34:10.093Z,70.1
2016-12-08T09:35:10.087Z,70.39
2016-12-08T09:36:10.075Z,70.1
2016-12-08T09:37:10.070Z,70.1
2016-12-08T09:38:10.063Z,69.92
2016-12-08T09:39:10.053Z,69.85
2016-12-08T09:40:10.041Z,70.33
2016-12-08T09:41:10.034Z,69.76
2016-12-08T09:42:10.025Z,69.38
2016-12-08T09:43:10.014Z,69.48
2016-12-08T09:44:10.313Z,69.48
2016-12-08T09:45:10.000Z,69.29
2016-12-08T09:46:09.996Z,69.57
2016-12-08T09:47:09.983Z,69.48
2016-12-08T09:48:09.973Z,68.9
2016-12-08T09:49:09.961Z,69.1
2016-12-08T09:50:09.959Z,68.9
2016-12-08T09:51:09.947Z,69.1
2016-12-08T09:52:09.941Z,68.81
2016-12-08T09:53:09.929Z,68.71
2016-12-08T09:54:09.926Z,68.71
2016-12-08T09:55:09.915Z,68.52
2016-12-08T09:56:09.903Z,68.33
2016-12-08T09:57:09.896Z,68.71
2016-12-08T09:58:09.891Z,68.71
2016-12-08T09:59:09.885Z,68.81
2016-12-08T10:00:09.877Z,68.24
2016-12-08T10:01:09.865Z,68.24
2016-12-08T10:02:09.858Z,67.86
2016-12-08T10:03:09.846Z,67.67
2016-12-08T10:04:09.847Z,67.86
2016-12-08T10:05:09.830Z,68.43
2016-12-08T10:06:09.822Z,68.24
2016-12-08T10:07:09.819Z,68.24
2016-12-08T10:08:09.810Z,68.15
2016-12-08T10:09:09.802Z,68.71
2016-12-08T10:10:09.805Z,68.52
2016-12-08T10:11:09.785Z,68.52
2016-12-08T10:12:09.771Z,68.15
2016-12-08T10:13:09.763Z,68.24
2016-12-08T10:14:09.759Z,68.24
2016-12-08T10:15:09.748Z,68.52
2016-12-08T10:16:09.740Z,68.15
2016-12-08T10:17:09.733Z,68.71
2016-12-08T10:18:09.725Z,68.3
2016-12-08T10:19:09.712Z,68.71
2016-12-08T10:20:09.708Z,68.68
2016-12-08T10:21:09.697Z,69.06
2016-12-08T10:22:09.692Z,68.96
2016-12-08T10:23:09.683Z,68.96
2016-12-08T10:24:09.672Z,68.68
2016-12-08T10:25:09.665Z,68.52
2016-12-08T10:26:09.657Z,68.21
2016-12-08T10:27:09.647Z,68.59
2016-12-08T10:28:09.938Z,68.87
2016-12-08T10:29:09.632Z,68.59
2016-12-08T10:30:09.622Z,68.62
2016-12-08T10:31:09.611Z,68.71
2016-12-08T10:32:09.606Z,69
2016-12-08T10:33:09.595Z,68.81
2016-12-08T10:34:09.591Z,68.71
2016-12-08T10:35:09.581Z,68.68
2016-12-08T10:36:09.873Z,69.63
2016-12-08T10:37:09.589Z,69.57
2016-12-08T10:38:09.555Z,69.1
2016-12-08T10:39:09.546Z,68.62
2016-12-08T10:40:09.537Z,68.71
2016-12-08T10:41:09.825Z,68.24
2016-12-08T10:42:09.523Z,68.9
2016-12-08T10:43:09.512Z,67.86
2016-12-08T10:44:09.505Z,68.05
2016-12-08T10:45:09.493Z,67.67
2016-12-08T10:46:09.486Z,67.95
2016-12-08T10:47:09.474Z,68.43
2016-12-08T10:48:09.470Z,67.86
2016-12-08T10:49:09.462Z,68.05
2016-12-08T10:50:09.452Z,67.99
2016-12-08T10:51:09.451Z,67.89
2016-12-08T10:52:09.440Z,67.41
2016-12-08T10:53:09.430Z,67.41
2016-12-08T10:54:09.425Z,67.7
2016-12-08T10:55:09.416Z,66.85
2016-12-08T10:56:09.404Z,66.75
2016-12-08T10:57:09.608Z,67.13
2016-12-08T10:58:09.390Z,67.03
2016-12-08T10:59:09.379Z,67.13
2016-12-08T11:00:09.378Z,66.78
2016-12-08T11:01:09.369Z,66.31
2016-12-08T11:02:09.358Z,66.59
2016-12-08T11:03:09.354Z,65.83
2016-12-08T11:04:09.346Z,65.73
2016-12-08T11:05:09.336Z,65.45
2016-12-08T11:06:09.328Z,65.36
2016-12-08T11:07:09.318Z,64.97
2016-12-08T11:08:09.316Z,65.26
2016-12-08T11:09:09.305Z,65.1
2016-12-08T11:10:09.299Z,64.91
2016-12-08T11:11:09.294Z,64.81
2016-12-08T11:12:09.286Z,64.34
2016-12-08T11:13:09.282Z,64.05
2016-12-08T11:14:09.575Z,63.67
2016-12-08T11:15:09.261Z,63.48
2016-12-08T11:16:09.255Z,63.13
2016-12-08T11:17:09.247Z,63.13
2016-12-08T11:18:09.243Z,63.32
2016-12-08T11:19:09.237Z,62.56
2016-12-08T11:20:09.229Z,62.56
2016-12-08T11:21:09.226Z,63.32
2016-12-08T11:22:09.517Z,63.23
2016-12-08T11:23:09.209Z,63.32
2016-12-08T11:24:09.230Z,63.04
2016-12-08T11:25:09.197Z,62.46
2016-12-08T11:26:09.188Z,61.89
2016-12-08T11:27:09.184Z,61.8
2016-12-08T11:28:09.178Z,61.8
2016-12-08T11:29:09.172Z,62.56
2016-12-08T11:30:09.464Z,62.56
2016-12-08T11:31:09.157Z,61.51
2016-12-08T11:32:09.147Z,61.6
2016-12-08T11:33:09.143Z,61.6
2016-12-08T11:34:09.137Z,61.6
2016-12-08T11:35:09.128Z,60.94
2016-12-08T11:36:09.476Z,61.22
2016-12-08T11:37:09.118Z,61.22
2016-12-08T11:38:09.112Z,61.51
2016-12-08T11:39:09.106Z,61.7
2016-12-08T11:40:09.101Z,61.7
2016-12-08T11:41:09.098Z,61.89
2016-12-08T11:42:09.091Z,62.18
2016-12-08T11:43:09.083Z,61.8
2016-12-08T11:44:09.076Z,61.32
2016-12-08T11:45:09.067Z,61.32
2016-12-08T11:46:09.061Z,61.6
2016-12-08T11:47:09.058Z,61.32
2016-12-08T11:48:09.055Z,61.32
2016-12-08T11:49:09.046Z,61.41
2016-12-08T11:50:09.039Z,61.51
2016-12-08T11:51:09.031Z,61.41
2016-12-08T11:52:09.020Z,61.51
2016-12-08T11:53:09.014Z,61.51
2016-12-08T11:54:09.016Z,61.8
2016-12-08T11:55:09.005Z,61.8
2016-12-08T11:56:09.000Z,61.89
2016-12-08T11:57:08.990Z,61.7
2016-12-08T11:58:08.988Z,61.89
2016-12-08T11:59:08.980Z,61.89
2016-12-08T12:00:08.968Z,62.18
2016-12-08T12:01:08.962Z,62.37
2016-12-08T12:02:08.960Z,62.65
2016-12-08T12:03:08.950Z,62.37
2016-12-08T12:04:08.958Z,61.89
2016-12-08T12:05:08.937Z,61.8
2016-12-08T12:06:08.932Z,62.56
2016-12-08T12:07:08.928Z,62.65
2016-12-08T12:08:08.920Z,62.18
2016-12-08T12:09:08.911Z,62.56
2016-12-08T12:10:08.907Z,62.65
2016-12-08T12:11:08.900Z,62.56
2016-12-08T12:12:08.898Z,62.84
2016-12-08T12:13:08.884Z,62.46
2016-12-08T12:14:08.877Z,62.27
2016-12-08T12:15:08.880Z,62.75
2016-12-08T12:16:08.868Z,62.75
2016-12-08T12:17:08.859Z,63.04
2016-12-08T12:18:08.856Z,63.32
2016-12-08T12:19:08.845Z,63.13
2016-12-08T12:20:08.843Z,63.51
2016-12-08T12:21:08.836Z,63.51
2016-12-08T12:22:08.828Z,63.29
2016-12-08T12:23:08.820Z,63.29
2016-12-08T12:24:08.814Z,63.57
2016-12-08T12:25:08.804Z,63.2
2016-12-08T12:26:08.797Z,63.57
2016-12-08T12:27:08.796Z,63.57
2016-12-08T12:28:08.785Z,63.57
2016-12-08T12:29:08.780Z,63.57
2016-12-08T12:30:08.771Z,63.67
2016-12-08T12:31:08.761Z,63.86
2016-12-08T12:32:08.758Z,64.43
2016-12-08T12:33:08.749Z,64.43
2016-12-08T12:34:08.748Z,64.05
2016-12-08T12:35:08.736Z,64.34
2016-12-08T12:36:08.730Z,64.34
2016-12-08T12:37:08.722Z,64.53
2016-12-08T12:38:08.715Z,64.34
2016-12-08T12:39:08.709Z,64.34
2016-12-08T12:40:08.703Z,64.24
2016-12-08T12:41:08.993Z,63.96
2016-12-08T12:42:08.684Z,64.43
2016-12-08T12:43:08.679Z,64.53
2016-12-08T12:44:08.669Z,64.62
2016-12-08T12:45:08.668Z,64.43
2016-12-08T12:46:08.659Z,65.1
2016-12-08T12:47:08.650Z,64.81
2016-12-08T12:48:08.646Z,65
2016-12-08T12:49:08.636Z,64.81
2016-12-08T12:50:08.629Z,64.59
2016-12-08T12:51:08.619Z,64.87
2016-12-08T12:52:08.612Z,64.87
2016-12-08T12:53:08.603Z,64.87
2016-12-08T12:54:08.601Z,64.97